Terminal Aerodrome Forecast
Issued by NWS

Home | Current Version | Previous Version | Text Only | Print | Product List | Glossary On
Versions: 1 2 3 4 5 6 7 8 9 10 11 12 13 14 15 16 17 18 19 20 21 22 23 24 25
000
FTUS45 KBOU 300541
TAFAPA
TAF
KAPA 300541Z 3006/3106 16007KT P6SM FEW140 SCT220
     FM301000 VRB05KT P6SM FEW220
     FM301600 15007KT P6SM FEW080 SCT140
     FM302000 06008KT P6SM SCT080 BKN110 PROB30 3020/3024 VRB20G35KT
      -TSRA BKN080CB
     FM310500 03012KT P6SM VCSH SCT080 BKN120=

USA.gov is the U.S. government's official web portal to all federal, state and local government web resources and services.